Wednesday, July 23, 2014, 8:27 PM EDT
Back to Local

KPTW, Pottstown Limerick Airport

Location: Royersford, PA, United States Lat: 40.233
Local Time: 8:27 PM EDT ( 0:27 GMT) Lon: -75.55
Time Zone: US/Eastern Elev: 291 ft

Show me the last for .
Show Decoded

2014-07-23 19:54 METAR KPTW 232354Z AUTO 00000KT 10SM -RA FEW120 22/21 A2985 RMK AO2 LTG DSNT
                 ALQDS RAB2257 TSE31 PRESFR SLP103 P0020 60020 T02170206 10328 20217 50009 =
2014-07-23 19:50 METAR KPTW 232350Z AUTO 00000KT 10SM -RA SCT110 22/21 A2986 RMK AO2 LTG DSNT
                 ALQDS RAB2257 TSE31 P0020 =
2014-07-23 19:37 METAR KPTW 232337Z AUTO 22006KT 10SM VCTS -RA FEW046 SCT100 BKN120 22/21 A2988
                 RMK AO2 LTG DSNT ALQDS RAB2257 TSE31 PRESRR P0020 T02220206 =
2014-07-23 18:54 METAR KPTW 232254Z AUTO 26013G23KT 230V290 10SM TS FEW020 OVC060 26/19 A2986 RMK
                 AO2 LTG DSNT ALQDS TSB52 SLP107 T02610194 =
2014-07-23 18:44 METAR KPTW 232244Z AUTO VRB03KT 10SM VCTS BKN065 OVC085 29/21 A2984 RMK AO2 LTG
                 DSNT ALQDS T02940211 =
2014-07-23 18:09 METAR KPTW 232209Z AUTO 20006KT 10SM FEW100 31/21 A2980 RMK AO2 LTG DSNT SW-N
                 T03060206 =
2014-07-23 17:54 METAR KPTW 232154Z AUTO 20007KT 10SM VCTS CLR 31/21 A2982 RMK AO2 LTG DSNT W-N
                 SLP093 T03060206 =
2014-07-23 17:46 METAR KPTW 232146Z AUTO 20007KT 10SM VCTS CLR 31/21 A2982 RMK AO2 LTG DSNT W-N
                 T03060206 =
2014-07-23 16:54 METAR KPTW 232054Z AUTO 20010KT 10SM FEW042 32/21 A2984 RMK AO2 LTG DSNT NW
                 SLP099 T03170211 57021 =
2014-07-23 14:54 METAR KPTW 231854Z AUTO 22011G16KT 10SM FEW041 SCT060 BKN075 32/21 A2988 RMK AO2
                 SLP114 T03220211 =
2014-07-23 13:54 METAR KPTW 231754Z AUTO 23008KT 10SM SCT038 BKN048 31/21 A2990 RMK AO2 SLP120
                 T03110211 10317 20228 56022 =
2014-07-23 12:54 METAR KPTW 231654Z AUTO 20007KT 160V230 10SM FEW032 BKN043 OVC050 32/22 A2992
                 RMK AO2 SLP126 T03170222 =
2014-07-23 11:54 METAR KPTW 231554Z AUTO VRB05KT 10SM SCT043 BKN050 29/22 A2994 RMK AO2 SLP133
                 T02890222 =
2014-07-23 10:54 METAR KPTW 231454Z AUTO VRB04KT 10SM FEW023 28/21 A2996 RMK AO2 SLP142 T02830211
                 58018 =
2014-07-23 09:54 METAR KPTW 231354Z AUTO VRB05KT 10SM FEW070 27/22 A2998 RMK AO2 SLP148 T02670217
                 =
2014-07-23 08:54 METAR KPTW 231254Z AUTO 23004KT 10SM CLR 24/21 A3001 RMK AO2 SLP158 T02440206 =
2014-07-23 07:54 METAR KPTW 231154Z AUTO 19003KT 10SM CLR 23/20 A3002 RMK AO2 SLP160 T02280200
                 10228 20194 53001 =
2014-07-23 06:54 METAR KPTW 231054Z AUTO 00000KT 10SM FEW045 BKN110 21/19 A3002 RMK AO2 SLP161
                 T02110194 =
2014-07-23 05:54 METAR KPTW 230954Z AUTO 00000KT 10SM FEW100 19/18 A3001 RMK AO2 SLP157 T01940183
                 =
2014-07-23 04:54 METAR KPTW 230854Z AUTO 00000KT 10SM CLR 20/18 A3002 RMK AO2 SLP159 T02000183
                 58016 =
2014-07-23 02:54 METAR KPTW 230654Z AUTO 00000KT 10SM CLR 21/18 A3005 RMK AO2 SLP171 T02060183 =
2014-07-23 01:54 METAR KPTW 230554Z AUTO 00000KT 10SM CLR 21/18 A3006 RMK AO2 SLP175 60000
                 T02060183 10267 20206 56014 =
2014-07-23 00:54 METAR KPTW 230454Z AUTO 00000KT 10SM CLR 21/18 A3008 RMK AO2 SLP180 T02110183
                 403060172 =
2014-07-22 22:54 METAR KPTW 230254Z AUTO VRB03KT 10SM CLR 23/18 A3010 RMK AO2 SLP189 60000
                 T02330178 53000 =
2014-07-22 20:54 METAR KPTW 230054Z AUTO 20005KT 10SM CLR 26/19 A3010 RMK AO2 SLP188 T02560189 =

Support USWX by starting your Amazon purchase here.